Archival Weather

Sydney Intl

Sydney, Australia (YSSY)

Report from: Wednesday, September 20, 2023 10:30 PM AEST
Current time: Saturday, June 22, 2024 9:13 AM AEST

Current weather – Weather history – Daily summaries
Weather forecast

Temperature18.0°C (64.4°F)
Dew point16.0°C (60.8°F)
Winds 21 kts (10.8 m/s, 24.2 mph) South (180°)
Visibility5 mi. (8 km)
Clouds Sky clear
Altimeter29.83 in.Hg (1010 mB)
Relative humidity88 %
Density altitude712 ft. (217 m)
Remarks Fully automated report
No clouds detected
Flight conditions Marginal Visual Meteorological Conditions
Raw dataYSSY 201230Z AUTO 18021KT 8000 // NCD 18/16 Q1010 RF00.0/000.0
An error has occurred. This application may no longer respond until reloaded. Reload 🗙